createdAt,value
2022-11-16T00:01:41.101Z,8.384615384615385
2022-11-16T00:08:11.699Z,8.692307692307692
2022-11-16T00:14:40.720Z,8.040133779264215
2022-11-16T00:21:09.254Z,7.916387959866221
2022-11-16T00:27:48.600Z,8.284280936454849
2022-11-16T00:34:17.106Z,8.632107023411372
2022-11-16T00:44:13.321Z,8.08361204013378
2022-11-16T00:50:53.007Z,8.070234113712374
2022-11-16T00:57:22.073Z,7.919732441471572
2022-11-16T01:04:26.060Z,8.367892976588628
2022-11-16T01:17:16.146Z,8.351170568561873
2022-11-16T01:23:57.566Z,8.548494983277592
2022-11-16T01:34:18.071Z,8.565217391304348
2022-11-16T01:40:46.110Z,8.294314381270903
2022-11-16T01:49:50.944Z,8.237458193979933
2022-11-16T02:00:08.566Z,8.107023411371237
2022-11-16T02:06:37.877Z,8.224080267558529
2022-11-16T02:13:51.415Z,8.08361204013378
2022-11-16T02:20:22.075Z,8.33779264214047
2022-11-16T02:27:04.096Z,7.608695652173913
2022-11-16T02:33:32.975Z,7.906354515050167
2022-11-16T02:40:01.650Z,8.103678929765886
2022-11-16T02:51:27.237Z,7.635451505016722
2022-11-16T03:01:39.213Z,8.91304347826087
2022-11-16T03:23:15.186Z,9.494983277591974
2022-11-16T03:29:43.512Z,9.100334448160535
2022-11-16T03:42:31.319Z,10.31772575250836
2022-11-16T03:49:01.377Z,11.073578595317725
2022-11-16T03:55:33.129Z,10.505016722408026
2022-11-16T04:02:01.127Z,12.23076923076923
2022-11-16T04:08:30.168Z,11.819397993311037
2022-11-16T04:18:22.103Z,12.665551839464882
2022-11-16T04:26:37.113Z,13.234113712374581
2022-11-16T04:33:06.079Z,13.384615384615385
2022-11-16T04:39:35.293Z,14.270903010033445
2022-11-16T04:46:04.242Z,14.37123745819398
2022-11-16T05:04:20.337Z,15.461538461538462
2022-11-16T05:12:12.121Z,16.16722408026756
2022-11-16T05:20:37.768Z,16.698996655518396
2022-11-16T05:27:13.458Z,17.31438127090301
2022-11-16T05:33:41.729Z,17.03344481605351
2022-11-16T05:44:45.956Z,19.14715719063545
2022-11-16T05:51:14.310Z,19.903010033444815
2022-11-16T05:57:44.731Z,20.150501672240804
2022-11-16T06:08:37.764Z,22.180602006688964
2022-11-16T06:15:25.227Z,22.354515050167223
2022-11-16T06:21:52.261Z,22.578595317725753
2022-11-16T06:32:59.004Z,22.903010033444815
2022-11-16T06:39:26.410Z,22.451505016722408
2022-11-16T06:45:53.257Z,23.19732441471572
2022-11-16T06:57:08.581Z,22.896321070234112
2022-11-16T07:08:18.176Z,22.287625418060202
2022-11-16T07:14:45.948Z,22.066889632107024
2022-11-16T07:26:13.646Z,22.06020066889632
2022-11-16T07:32:41.451Z,22.4247491638796
2022-11-16T07:39:08.300Z,22.879598662207357
2022-11-16T07:45:35.552Z,22.622073578595316
2022-11-16T07:52:34.242Z,22.8561872909699
2022-11-16T07:59:01.014Z,22.909698996655518
2022-11-16T08:05:28.088Z,23.224080267558527
2022-11-16T08:11:55.369Z,22.695652173913043
2022-11-16T08:18:22.623Z,23.207357859531772
2022-11-16T08:24:57.761Z,23.240802675585286
2022-11-16T08:31:24.906Z,23.247491638795985
2022-11-16T08:37:51.525Z,23.2809364548495
2022-11-16T08:44:18.513Z,23.05016722408027
2022-11-16T08:51:15.327Z,22.889632107023413
2022-11-16T08:57:43.485Z,22.448160535117058
2022-11-16T09:04:10.266Z,22.839464882943144
2022-11-16T09:14:23.454Z,22.956521739130434
2022-11-16T09:20:49.964Z,23.05016722408027
2022-11-16T09:27:22.021Z,23.73913043478261
2022-11-16T09:37:18.798Z,23.889632107023413
2022-11-16T09:43:46.394Z,24.06020066889632
2022-11-16T09:50:16.401Z,23.74247491638796
2022-11-16T09:56:43.017Z,23.665551839464882
2022-11-16T10:10:03.058Z,24.42809364548495
2022-11-16T10:17:07.859Z,24.47826086956522
2022-11-16T10:23:38.757Z,23.812709030100333
2022-11-16T10:30:05.317Z,24.207357859531772
2022-11-16T10:36:32.197Z,23.361204013377925
2022-11-16T10:42:58.739Z,23.695652173913043
2022-11-16T10:49:25.776Z,23.795986622073578
2022-11-16T11:02:50.753Z,24.732441471571907
2022-11-16T11:09:17.966Z,24.334448160535118
2022-11-16T11:15:45.405Z,24.103678929765888
2022-11-16T11:22:20.042Z,24.555183946488295
2022-11-16T11:42:41.187Z,24.989966555183948
2022-11-16T11:49:08.332Z,25.60535117056856
2022-11-16T11:55:36.044Z,23.702341137123746
2022-11-16T12:06:56.397Z,22.809364548494983
2022-11-16T12:13:23.460Z,20.993311036789297
2022-11-16T12:24:36.892Z,21.468227424749163
2022-11-16T12:31:03.901Z,21.892976588628763
2022-11-16T12:37:31.281Z,21.193979933110366
2022-11-16T12:43:58.260Z,21.31103678929766
2022-11-16T12:54:19.827Z,20.678929765886288
2022-11-16T13:00:47.390Z,19.351170568561873
2022-11-16T13:25:08.639Z,16.25752508361204
2022-11-16T13:31:36.679Z,16.090301003344482
2022-11-16T13:38:03.679Z,16.441471571906355
2022-11-16T13:44:30.991Z,17.14715719063545
2022-11-16T13:50:57.717Z,16.277591973244146
2022-11-16T14:02:28.515Z,16.40468227424749
2022-11-16T14:08:56.300Z,16.076923076923077
2022-11-16T14:15:24.064Z,15.157190635451505
2022-11-16T14:21:50.882Z,14.979933110367893
2022-11-16T14:42:03.439Z,13.177257525083611
2022-11-16T14:48:30.998Z,12.602006688963211
2022-11-16T14:54:58.952Z,12.42809364548495
2022-11-16T15:01:26.016Z,12.471571906354516
2022-11-16T15:07:52.952Z,11.939799331103679
2022-11-16T15:27:51.214Z,12.2876254180602
2022-11-16T15:38:04.648Z,12.234113712374581
2022-11-16T15:44:32.177Z,12.013377926421406
2022-11-16T15:56:38.943Z,11.280936454849499
2022-11-16T16:19:09.731Z,11.167224080267559
2022-11-16T16:30:56.452Z,11.996655518394649
2022-11-16T16:37:25.105Z,11.799331103678929
2022-11-16T16:43:56.681Z,27.682274247491637
2022-11-16T16:50:27.384Z,18.755852842809364
2022-11-16T16:56:56.608Z,15.301003344481606
2022-11-16T17:06:07.579Z,18.351170568561873
2022-11-16T17:12:41.444Z,11.956521739130435
2022-11-16T17:19:08.625Z,10.789297658862877
2022-11-16T17:25:37.779Z,10.20401337792642
2022-11-16T17:40:18.781Z,8.909698996655518
2022-11-16T17:46:48.570Z,9.939799331103679
2022-11-16T17:55:34.561Z,9.003344481605351
2022-11-16T18:02:03.483Z,8.792642140468228
2022-11-16T18:08:33.244Z,9.438127090301004
2022-11-16T18:17:09.430Z,9.180602006688963
2022-11-16T18:23:43.179Z,8.839464882943144
2022-11-16T18:34:35.656Z,8.695652173913043
2022-11-16T18:41:03.614Z,8.705685618729097
2022-11-16T18:47:31.216Z,8.020066889632107
2022-11-16T18:53:58.252Z,7.6521739130434785
2022-11-16T19:00:25.011Z,7.688963210702341
2022-11-16T19:06:52.083Z,7.959866220735786
2022-11-16T19:13:19.331Z,7.739130434782608
2022-11-16T19:19:48.312Z,7.6923076923076925
2022-11-16T19:33:49.923Z,6.11371237458194
2022-11-16T19:42:41.097Z,4.7725752508361206
2022-11-16T19:52:46.742Z,3.4983277591973243
2022-11-16T20:04:23.725Z,2.8729096989966556
2022-11-16T20:10:51.130Z,2.652173913043478
2022-11-16T20:17:18.252Z,2.180602006688963
2022-11-16T20:23:50.116Z,2.7324414715719065
2022-11-16T20:30:52.231Z,3.468227424749164
2022-11-16T20:37:19.791Z,2.31438127090301
2022-11-16T20:49:39.169Z,3.3645484949832776
2022-11-16T21:00:28.150Z,2.8896321070234112
2022-11-16T21:06:55.106Z,3.5016722408026757
2022-11-16T21:13:22.674Z,3.6053511705685617
2022-11-16T21:20:05.680Z,4.1638795986622075
2022-11-16T21:26:48.310Z,3.739130434782609
2022-11-16T21:33:16.897Z,3.8896321070234112
2022-11-16T21:39:44.694Z,3.632107023411371
2022-11-16T21:46:13.026Z,3.3043478260869565
2022-11-16T21:52:41.242Z,3.6354515050167224
2022-11-16T21:59:09.031Z,3.511705685618729
2022-11-16T22:10:49.549Z,3.6053511705685617
2022-11-16T22:28:40.712Z,3.5652173913043477
2022-11-16T22:38:29.717Z,3.678929765886288
2022-11-16T22:44:59.040Z,3.234113712374582
2022-11-16T22:51:27.271Z,3.6421404682274248
2022-11-16T22:57:54.799Z,3.5351170568561874
2022-11-16T23:04:23.082Z,3.2842809364548495
2022-11-16T23:10:50.893Z,3.2642140468227425
2022-11-16T23:23:25.627Z,4.294314381270903
2022-11-16T23:29:53.068Z,3.608695652173913
2022-11-16T23:36:21.297Z,4.48494983277592
2022-11-16T23:42:49.066Z,4.384615384615385
